sensor_id;sensor_type;location;lat;lon;timestamp;temperature;humidity
52979;DHT22;63430;53.186;6.598;2023-02-11T00:01:27;6.70;99.90
52979;DHT22;63430;53.186;6.598;2023-02-11T00:03:30;6.70;99.90
52979;DHT22;63430;53.186;6.598;2023-02-11T00:05:36;6.70;99.90
52979;DHT22;63430;53.186;6.598;2023-02-11T00:07:39;6.70;99.90
52979;DHT22;63430;53.186;6.598;2023-02-11T00:09:41;6.70;99.90
52979;DHT22;63430;53.186;6.598;2023-02-11T00:11:44;7.00;99.90
52979;DHT22;63430;53.186;6.598;2023-02-11T00:13:46;6.70;99.90
52979;DHT22;63430;53.186;6.598;2023-02-11T00:15:49;6.70;99.90
52979;DHT22;63430;53.186;6.598;2023-02-11T00:17:52;7.50;99.90
52979;DHT22;63430;53.186;6.598;2023-02-11T00:19:54;6.70;99.90
52979;DHT22;63430;53.186;6.598;2023-02-11T00:21:59;6.70;99.90
52979;DHT22;63430;53.186;6.598;2023-02-11T00:24:02;6.70;99.90
52979;DHT22;63430;53.186;6.598;2023-02-11T00:26:11;6.70;99.90
52979;DHT22;63430;53.186;6.598;2023-02-11T00:28:16;6.70;99.90
52979;DHT22;63430;53.186;6.598;2023-02-11T00:30:18;6.70;99.90
52979;DHT22;63430;53.186;6.598;2023-02-11T00:32:21;6.70;99.90
52979;DHT22;63430;53.186;6.598;2023-02-11T00:34:24;6.80;99.90
52979;DHT22;63430;53.186;6.598;2023-02-11T00:36:28;6.80;99.90
52979;DHT22;63430;53.186;6.598;2023-02-11T00:38:33;6.80;99.90
52979;DHT22;63430;53.186;6.598;2023-02-11T00:40:35;6.80;99.90
52979;DHT22;63430;53.186;6.598;2023-02-11T00:42:38;6.80;99.90
52979;DHT22;63430;53.186;6.598;2023-02-11T00:44:40;6.70;99.90
52979;DHT22;63430;53.186;6.598;2023-02-11T00:46:42;6.70;99.90
52979;DHT22;63430;53.186;6.598;2023-02-11T00:48:45;6.80;99.90
52979;DHT22;63430;53.186;6.598;2023-02-11T00:50:47;6.80;99.90
52979;DHT22;63430;53.186;6.598;2023-02-11T00:52:50;6.70;99.90
52979;DHT22;63430;53.186;6.598;2023-02-11T00:54:55;6.70;99.90
52979;DHT22;63430;53.186;6.598;2023-02-11T00:56:57;6.70;99.90
52979;DHT22;63430;53.186;6.598;2023-02-11T00:58:59;6.70;99.90
52979;DHT22;63430;53.186;6.598;2023-02-11T01:01:02;6.80;99.90
52979;DHT22;63430;53.186;6.598;2023-02-11T01:03:05;6.80;99.90
52979;DHT22;63430;53.186;6.598;2023-02-11T01:05:07;6.80;99.90
52979;DHT22;63430;53.186;6.598;2023-02-11T01:07:10;6.80;99.90
52979;DHT22;63430;53.186;6.598;2023-02-11T01:09:13;6.80;99.90
52979;DHT22;63430;53.186;6.598;2023-02-11T01:11:19;6.80;99.90
52979;DHT22;63430;53.186;6.598;2023-02-11T01:13:22;6.80;99.90
52979;DHT22;63430;53.186;6.598;2023-02-11T01:15:25;6.80;99.90
52979;DHT22;63430;53.186;6.598;2023-02-11T01:17:27;6.80;99.90
52979;DHT22;63430;53.186;6.598;2023-02-11T01:19:30;6.80;99.90
52979;DHT22;63430;53.186;6.598;2023-02-11T01:21:32;6.80;99.90
52979;DHT22;63430;53.186;6.598;2023-02-11T01:23:34;6.80;99.90
52979;DHT22;63430;53.186;6.598;2023-02-11T01:25:38;6.80;99.90
52979;DHT22;63430;53.186;6.598;2023-02-11T01:27:43;6.80;99.90
52979;DHT22;63430;53.186;6.598;2023-02-11T01:29:46;6.70;99.90
52979;DHT22;63430;53.186;6.598;2023-02-11T01:31:48;6.70;99.90
52979;DHT22;63430;53.186;6.598;2023-02-11T01:33:51;6.70;99.90
52979;DHT22;63430;53.186;6.598;2023-02-11T01:35:53;6.70;99.90
52979;DHT22;63430;53.186;6.598;2023-02-11T01:37:55;6.70;99.90
52979;DHT22;63430;53.186;6.598;2023-02-11T01:40:00;6.70;99.90
52979;DHT22;63430;53.186;6.598;2023-02-11T01:42:04;6.70;99.90
52979;DHT22;63430;53.186;6.598;2023-02-11T01:44:28;6.70;99.90
52979;DHT22;63430;53.186;6.598;2023-02-11T01:46:33;6.70;99.90
52979;DHT22;63430;53.186;6.598;2023-02-11T01:48:39;6.70;99.90
52979;DHT22;63430;53.186;6.598;2023-02-11T01:50:43;6.70;99.90
52979;DHT22;63430;53.186;6.598;2023-02-11T01:52:48;6.70;99.90
52979;DHT22;63430;53.186;6.598;2023-02-11T01:54:52;6.70;99.90
52979;DHT22;63430;53.186;6.598;2023-02-11T01:57:17;6.70;99.90
52979;DHT22;63430;53.186;6.598;2023-02-11T01:59:40;6.60;99.90
52979;DHT22;63430;53.186;6.598;2023-02-11T02:01:52;6.60;99.90
52979;DHT22;63430;53.186;6.598;2023-02-11T02:04:00;6.60;99.90
52979;DHT22;63430;53.186;6.598;2023-02-11T02:06:06;6.60;99.90
52979;DHT22;63430;53.186;6.598;2023-02-11T02:08:22;6.60;99.90
52979;DHT22;63430;53.186;6.598;2023-02-11T02:10:30;6.60;99.90
52979;DHT22;63430;53.186;6.598;2023-02-11T02:12:35;6.60;99.90
52979;DHT22;63430;53.186;6.598;2023-02-11T02:14:41;6.70;99.90
52979;DHT22;63430;53.186;6.598;2023-02-11T02:16:44;6.60;99.90
52979;DHT22;63430;53.186;6.598;2023-02-11T02:18:55;6.60;99.90
52979;DHT22;63430;53.186;6.598;2023-02-11T02:23:54;6.50;99.90
52979;DHT22;63430;53.186;6.598;2023-02-11T02:31:22;6.50;99.90
52979;DHT22;63430;53.186;6.598;2023-02-11T02:33:46;6.50;99.90
52979;DHT22;63430;53.186;6.598;2023-02-11T02:36:01;6.60;99.90
52979;DHT22;63430;53.186;6.598;2023-02-11T02:38:09;6.50;99.90
52979;DHT22;63430;53.186;6.598;2023-02-11T02:40:17;6.40;99.90
52979;DHT22;63430;53.186;6.598;2023-02-11T02:42:21;6.50;99.90
52979;DHT22;63430;53.186;6.598;2023-02-11T02:44:24;6.40;99.90
52979;DHT22;63430;53.186;6.598;2023-02-11T02:46:29;6.50;99.90
52979;DHT22;63430;53.186;6.598;2023-02-11T02:48:33;6.50;99.90
52979;DHT22;63430;53.186;6.598;2023-02-11T02:50:41;6.50;99.90
52979;DHT22;63430;53.186;6.598;2023-02-11T02:52:51;6.50;99.90
52979;DHT22;63430;53.186;6.598;2023-02-11T02:55:25;6.50;99.90
52979;DHT22;63430;53.186;6.598;2023-02-11T02:57:31;6.50;99.90
52979;DHT22;63430;53.186;6.598;2023-02-11T02:59:48;6.50;99.90
52979;DHT22;63430;53.186;6.598;2023-02-11T03:02:00;6.50;99.90
52979;DHT22;63430;53.186;6.598;2023-02-11T03:04:12;6.50;99.90
52979;DHT22;63430;53.186;6.598;2023-02-11T03:06:27;6.60;99.90
52979;DHT22;63430;53.186;6.598;2023-02-11T03:08:36;6.50;99.90
52979;DHT22;63430;53.186;6.598;2023-02-11T03:10:42;6.50;99.90
52979;DHT22;63430;53.186;6.598;2023-02-11T03:12:47;6.50;99.90
52979;DHT22;63430;53.186;6.598;2023-02-11T03:14:50;6.50;99.90
52979;DHT22;63430;53.186;6.598;2023-02-11T03:16:54;6.50;99.90
52979;DHT22;63430;53.186;6.598;2023-02-11T03:19:02;6.60;99.90
52979;DHT22;63430;53.186;6.598;2023-02-11T03:21:07;6.60;99.90
52979;DHT22;63430;53.186;6.598;2023-02-11T03:23:14;6.60;99.90
52979;DHT22;63430;53.186;6.598;2023-02-11T03:25:20;6.70;99.90
52979;DHT22;63430;53.186;6.598;2023-02-11T03:27:24;6.60;99.90
52979;DHT22;63430;53.186;6.598;2023-02-11T03:29:34;6.60;99.90
52979;DHT22;63430;53.186;6.598;2023-02-11T03:31:43;6.60;99.90
52979;DHT22;63430;53.186;6.598;2023-02-11T03:33:54;6.70;99.90
52979;DHT22;63430;53.186;6.598;2023-02-11T03:36:02;6.70;99.90
52979;DHT22;63430;53.186;6.598;2023-02-11T03:38:10;6.80;99.90
52979;DHT22;63430;53.186;6.598;2023-02-11T03:40:19;6.70;99.90
52979;DHT22;63430;53.186;6.598;2023-02-11T03:42:25;6.80;99.90
52979;DHT22;63430;53.186;6.598;2023-02-11T03:44:31;6.70;99.90
52979;DHT22;63430;53.186;6.598;2023-02-11T03:46:38;6.70;99.90
52979;DHT22;63430;53.186;6.598;2023-02-11T03:48:45;6.70;99.90
52979;DHT22;63430;53.186;6.598;2023-02-11T03:50:51;6.60;99.90
52979;DHT22;63430;53.186;6.598;2023-02-11T03:52:56;6.60;99.90
52979;DHT22;63430;53.186;6.598;2023-02-11T03:54:59;6.70;99.90
52979;DHT22;63430;53.186;6.598;2023-02-11T03:57:05;6.70;99.90
52979;DHT22;63430;53.186;6.598;2023-02-11T03:59:08;6.70;99.90
52979;DHT22;63430;53.186;6.598;2023-02-11T04:01:11;6.70;99.90
52979;DHT22;63430;53.186;6.598;2023-02-11T04:03:13;6.70;99.90
52979;DHT22;63430;53.186;6.598;2023-02-11T04:05:16;6.70;99.90
52979;DHT22;63430;53.186;6.598;2023-02-11T04:07:18;6.70;99.90
52979;DHT22;63430;53.186;6.598;2023-02-11T04:09:21;6.70;99.90
52979;DHT22;63430;53.186;6.598;2023-02-11T04:11:24;6.70;99.90
52979;DHT22;63430;53.186;6.598;2023-02-11T04:13:29;6.70;99.90
52979;DHT22;63430;53.186;6.598;2023-02-11T04:15:31;6.70;99.90
52979;DHT22;63430;53.186;6.598;2023-02-11T04:17:37;6.80;99.90
52979;DHT22;63430;53.186;6.598;2023-02-11T04:19:39;6.70;99.90
52979;DHT22;63430;53.186;6.598;2023-02-11T04:21:42;6.80;99.90
52979;DHT22;63430;53.186;6.598;2023-02-11T04:23:44;6.70;99.90
52979;DHT22;63430;53.186;6.598;2023-02-11T04:25:48;6.70;99.90
52979;DHT22;63430;53.186;6.598;2023-02-11T04:27:50;6.70;99.90
52979;DHT22;63430;53.186;6.598;2023-02-11T04:29:56;6.80;99.90
52979;DHT22;63430;53.186;6.598;2023-02-11T04:31:58;6.70;99.90
52979;DHT22;63430;53.186;6.598;2023-02-11T04:34:01;6.70;99.90
52979;DHT22;63430;53.186;6.598;2023-02-11T04:36:03;6.70;99.90
52979;DHT22;63430;53.186;6.598;2023-02-11T04:38:06;6.70;99.90
52979;DHT22;63430;53.186;6.598;2023-02-11T04:40:09;6.70;99.90
52979;DHT22;63430;53.186;6.598;2023-02-11T04:42:12;6.70;99.90
52979;DHT22;63430;53.186;6.598;2023-02-11T04:44:14;6.80;99.90
52979;DHT22;63430;53.186;6.598;2023-02-11T04:46:19;6.80;99.90
52979;DHT22;63430;53.186;6.598;2023-02-11T04:48:22;6.80;99.90
52979;DHT22;63430;53.186;6.598;2023-02-11T04:50:24;6.80;99.90
52979;DHT22;63430;53.186;6.598;2023-02-11T04:52:27;6.80;99.90
52979;DHT22;63430;53.186;6.598;2023-02-11T04:54:29;6.80;99.90
52979;DHT22;63430;53.186;6.598;2023-02-11T04:56:32;6.80;99.90
52979;DHT22;63430;53.186;6.598;2023-02-11T04:58:34;6.80;99.90
52979;DHT22;63430;53.186;6.598;2023-02-11T05:00:37;6.90;99.90
52979;DHT22;63430;53.186;6.598;2023-02-11T05:02:42;6.90;99.90
52979;DHT22;63430;53.186;6.598;2023-02-11T05:04:44;6.90;99.90
52979;DHT22;63430;53.186;6.598;2023-02-11T05:06:47;6.90;99.90
52979;DHT22;63430;53.186;6.598;2023-02-11T05:08:49;6.90;99.90
52979;DHT22;63430;53.186;6.598;2023-02-11T05:10:52;6.90;99.90
52979;DHT22;63430;53.186;6.598;2023-02-11T05:12:55;6.90;99.90
52979;DHT22;63430;53.186;6.598;2023-02-11T05:14:57;6.90;99.90
52979;DHT22;63430;53.186;6.598;2023-02-11T05:16:59;6.90;99.90
52979;DHT22;63430;53.186;6.598;2023-02-11T05:19:05;6.90;99.90
52979;DHT22;63430;53.186;6.598;2023-02-11T05:21:09;7.40;99.90
52979;DHT22;63430;53.186;6.598;2023-02-11T05:23:12;7.00;99.90
52979;DHT22;63430;53.186;6.598;2023-02-11T05:25:14;7.00;99.90
52979;DHT22;63430;53.186;6.598;2023-02-11T05:27:16;6.90;99.90
52979;DHT22;63430;53.186;6.598;2023-02-11T05:29:19;7.00;99.90
52979;DHT22;63430;53.186;6.598;2023-02-11T05:31:21;7.00;99.90
52979;DHT22;63430;53.186;6.598;2023-02-11T05:33:24;6.90;99.90
52979;DHT22;63430;53.186;6.598;2023-02-11T05:35:29;7.00;99.90
52979;DHT22;63430;53.186;6.598;2023-02-11T05:37:31;6.90;99.90
52979;DHT22;63430;53.186;6.598;2023-02-11T05:39:34;6.90;99.90
52979;DHT22;63430;53.186;6.598;2023-02-11T05:41:36;6.90;99.90
52979;DHT22;63430;53.186;6.598;2023-02-11T05:43:39;6.90;99.90
52979;DHT22;63430;53.186;6.598;2023-02-11T05:45:41;6.80;99.90
52979;DHT22;63430;53.186;6.598;2023-02-11T05:47:44;6.80;99.90
52979;DHT22;63430;53.186;6.598;2023-02-11T05:49:47;6.80;99.90
52979;DHT22;63430;53.186;6.598;2023-02-11T05:51:52;6.80;99.90
52979;DHT22;63430;53.186;6.598;2023-02-11T05:53:55;6.80;99.90
52979;DHT22;63430;53.186;6.598;2023-02-11T05:55:57;6.80;99.90
52979;DHT22;63430;53.186;6.598;2023-02-11T05:58:00;6.90;99.90
52979;DHT22;63430;53.186;6.598;2023-02-11T06:00:04;6.90;99.90
52979;DHT22;63430;53.186;6.598;2023-02-11T06:02:13;6.80;99.90
52979;DHT22;63430;53.186;6.598;2023-02-11T06:04:15;7.00;99.90
52979;DHT22;63430;53.186;6.598;2023-02-11T06:06:18;6.90;99.90
52979;DHT22;63430;53.186;6.598;2023-02-11T06:08:25;6.90;99.90
52979;DHT22;63430;53.186;6.598;2023-02-11T06:10:27;6.80;99.90
52979;DHT22;63430;53.186;6.598;2023-02-11T06:12:30;6.90;99.90
52979;DHT22;63430;53.186;6.598;2023-02-11T06:14:36;7.60;99.90
52979;DHT22;63430;53.186;6.598;2023-02-11T06:16:38;6.90;99.90
52979;DHT22;63430;53.186;6.598;2023-02-11T06:18:41;6.90;99.90
52979;DHT22;63430;53.186;6.598;2023-02-11T06:20:43;6.90;99.90
52979;DHT22;63430;53.186;6.598;2023-02-11T06:22:45;6.90;99.90
52979;DHT22;63430;53.186;6.598;2023-02-11T06:24:50;6.90;99.90
52979;DHT22;63430;53.186;6.598;2023-02-11T06:27:03;6.90;99.90
52979;DHT22;63430;53.186;6.598;2023-02-11T06:29:06;6.90;99.90
52979;DHT22;63430;53.186;6.598;2023-02-11T06:31:08;6.90;99.90
52979;DHT22;63430;53.186;6.598;2023-02-11T06:33:11;7.00;99.90
52979;DHT22;63430;53.186;6.598;2023-02-11T06:35:14;6.90;99.90
52979;DHT22;63430;53.186;6.598;2023-02-11T06:37:16;7.00;99.90
52979;DHT22;63430;53.186;6.598;2023-02-11T06:39:18;6.90;99.90
52979;DHT22;63430;53.186;6.598;2023-02-11T06:41:24;6.90;99.90
52979;DHT22;63430;53.186;6.598;2023-02-11T06:43:26;6.90;99.90
52979;DHT22;63430;53.186;6.598;2023-02-11T06:45:29;6.80;99.90
52979;DHT22;63430;53.186;6.598;2023-02-11T06:47:33;6.90;99.90
52979;DHT22;63430;53.186;6.598;2023-02-11T06:49:35;6.80;99.90
52979;DHT22;63430;53.186;6.598;2023-02-11T06:51:38;6.90;99.90
52979;DHT22;63430;53.186;6.598;2023-02-11T06:53:42;6.90;99.90
52979;DHT22;63430;53.186;6.598;2023-02-11T06:55:45;6.90;99.90
52979;DHT22;63430;53.186;6.598;2023-02-11T06:57:50;6.90;99.90
52979;DHT22;63430;53.186;6.598;2023-02-11T06:59:52;6.90;99.90
52979;DHT22;63430;53.186;6.598;2023-02-11T07:01:55;6.90;99.90
52979;DHT22;63430;53.186;6.598;2023-02-11T07:03:57;6.90;99.90
52979;DHT22;63430;53.186;6.598;2023-02-11T07:06:00;6.90;99.90
52979;DHT22;63430;53.186;6.598;2023-02-11T07:08:02;6.90;99.90
52979;DHT22;63430;53.186;6.598;2023-02-11T07:10:05;7.00;99.90
52979;DHT22;63430;53.186;6.598;2023-02-11T07:12:08;7.00;99.90
52979;DHT22;63430;53.186;6.598;2023-02-11T07:14:14;7.00;99.90
52979;DHT22;63430;53.186;6.598;2023-02-11T07:16:18;7.10;99.90
52979;DHT22;63430;53.186;6.598;2023-02-11T07:18:21;7.00;99.90
52979;DHT22;63430;53.186;6.598;2023-02-11T07:20:23;7.10;99.90
52979;DHT22;63430;53.186;6.598;2023-02-11T07:22:26;7.10;99.90
52979;DHT22;63430;53.186;6.598;2023-02-11T07:24:28;7.10;99.90
52979;DHT22;63430;53.186;6.598;2023-02-11T07:26:31;7.20;99.90
52979;DHT22;63430;53.186;6.598;2023-02-11T07:28:34;7.10;99.90
52979;DHT22;63430;53.186;6.598;2023-02-11T07:30:39;7.10;99.90
52979;DHT22;63430;53.186;6.598;2023-02-11T07:32:42;7.20;99.90
52979;DHT22;63430;53.186;6.598;2023-02-11T07:34:44;7.20;99.90
52979;DHT22;63430;53.186;6.598;2023-02-11T07:36:49;7.10;99.90
52979;DHT22;63430;53.186;6.598;2023-02-11T07:38:51;7.20;99.90
52979;DHT22;63430;53.186;6.598;2023-02-11T07:40:54;7.60;99.90
52979;DHT22;63430;53.186;6.598;2023-02-11T07:43:00;7.20;99.90
52979;DHT22;63430;53.186;6.598;2023-02-11T07:45:03;7.20;99.90
52979;DHT22;63430;53.186;6.598;2023-02-11T07:47:08;7.20;99.90
52979;DHT22;63430;53.186;6.598;2023-02-11T07:49:11;7.30;99.90
52979;DHT22;63430;53.186;6.598;2023-02-11T07:51:15;7.20;99.90
52979;DHT22;63430;53.186;6.598;2023-02-11T07:53:18;7.30;99.90
52979;DHT22;63430;53.186;6.598;2023-02-11T07:55:20;7.30;99.90
52979;DHT22;63430;53.186;6.598;2023-02-11T07:57:23;7.30;99.90
52979;DHT22;63430;53.186;6.598;2023-02-11T07:59:25;7.30;99.90
52979;DHT22;63430;53.186;6.598;2023-02-11T08:01:30;7.30;99.90
52979;DHT22;63430;53.186;6.598;2023-02-11T08:03:36;7.40;99.90
52979;DHT22;63430;53.186;6.598;2023-02-11T08:05:39;7.40;99.90
52979;DHT22;63430;53.186;6.598;2023-02-11T08:07:45;7.40;99.90
52979;DHT22;63430;53.186;6.598;2023-02-11T08:09:47;7.50;99.90
52979;DHT22;63430;53.186;6.598;2023-02-11T08:11:50;7.60;99.90
52979;DHT22;63430;53.186;6.598;2023-02-11T08:13:54;7.50;99.90
52979;DHT22;63430;53.186;6.598;2023-02-11T08:15:57;7.50;99.90
52979;DHT22;63430;53.186;6.598;2023-02-11T08:18:01;7.50;99.90
52979;DHT22;63430;53.186;6.598;2023-02-11T08:20:06;7.50;99.90
52979;DHT22;63430;53.186;6.598;2023-02-11T08:22:09;7.60;99.90
52979;DHT22;63430;53.186;6.598;2023-02-11T08:24:11;7.60;99.90
52979;DHT22;63430;53.186;6.598;2023-02-11T08:26:16;7.60;99.90
52979;DHT22;63430;53.186;6.598;2023-02-11T08:28:18;7.60;99.90
52979;DHT22;63430;53.186;6.598;2023-02-11T08:30:21;7.60;99.90
52979;DHT22;63430;53.186;6.598;2023-02-11T08:32:23;7.60;99.90
52979;DHT22;63430;53.186;6.598;2023-02-11T08:34:26;7.70;99.90
52979;DHT22;63430;53.186;6.598;2023-02-11T08:36:33;7.70;99.90
52979;DHT22;63430;53.186;6.598;2023-02-11T08:38:37;7.70;99.90
52979;DHT22;63430;53.186;6.598;2023-02-11T08:40:41;7.70;99.90
52979;DHT22;63430;53.186;6.598;2023-02-11T08:42:43;7.80;99.90
52979;DHT22;63430;53.186;6.598;2023-02-11T08:44:45;7.80;99.90
52979;DHT22;63430;53.186;6.598;2023-02-11T08:46:49;7.80;99.90
52979;DHT22;63430;53.186;6.598;2023-02-11T08:48:52;7.90;99.90
52979;DHT22;63430;53.186;6.598;2023-02-11T08:50:56;7.90;99.90
52979;DHT22;63430;53.186;6.598;2023-02-11T08:53:01;7.90;99.90
52979;DHT22;63430;53.186;6.598;2023-02-11T08:55:04;7.90;99.90
52979;DHT22;63430;53.186;6.598;2023-02-11T08:57:06;8.00;99.90
52979;DHT22;63430;53.186;6.598;2023-02-11T08:59:12;8.00;99.90
52979;DHT22;63430;53.186;6.598;2023-02-11T09:01:16;8.00;99.90
52979;DHT22;63430;53.186;6.598;2023-02-11T09:03:19;8.00;99.90
52979;DHT22;63430;53.186;6.598;2023-02-11T09:05:21;8.00;99.90
52979;DHT22;63430;53.186;6.598;2023-02-11T09:07:24;8.00;99.90
52979;DHT22;63430;53.186;6.598;2023-02-11T09:09:29;8.10;99.90
52979;DHT22;63430;53.186;6.598;2023-02-11T09:11:33;8.10;99.90
52979;DHT22;63430;53.186;6.598;2023-02-11T09:13:36;8.20;99.90
52979;DHT22;63430;53.186;6.598;2023-02-11T09:15:38;8.20;99.90
52979;DHT22;63430;53.186;6.598;2023-02-11T09:17:40;8.10;99.90
52979;DHT22;63430;53.186;6.598;2023-02-11T09:19:44;8.20;99.90
52979;DHT22;63430;53.186;6.598;2023-02-11T09:21:46;8.20;99.90
52979;DHT22;63430;53.186;6.598;2023-02-11T09:23:48;8.20;99.90
52979;DHT22;63430;53.186;6.598;2023-02-11T09:25:54;8.20;99.90
52979;DHT22;63430;53.186;6.598;2023-02-11T09:27:56;8.20;99.90
52979;DHT22;63430;53.186;6.598;2023-02-11T09:29:58;8.20;99.90
52979;DHT22;63430;53.186;6.598;2023-02-11T09:32:01;8.20;99.90
52979;DHT22;63430;53.186;6.598;2023-02-11T09:34:04;8.30;99.90
52979;DHT22;63430;53.186;6.598;2023-02-11T09:36:07;8.30;99.90
52979;DHT22;63430;53.186;6.598;2023-02-11T09:38:10;8.40;99.90
52979;DHT22;63430;53.186;6.598;2023-02-11T09:40:13;8.40;99.90
52979;DHT22;63430;53.186;6.598;2023-02-11T09:42:44;8.40;99.90
52979;DHT22;63430;53.186;6.598;2023-02-11T09:44:48;8.40;99.90
52979;DHT22;63430;53.186;6.598;2023-02-11T09:46:55;8.50;99.90
52979;DHT22;63430;53.186;6.598;2023-02-11T09:48:59;8.50;99.90
52979;DHT22;63430;53.186;6.598;2023-02-11T09:51:03;8.60;99.90
52979;DHT22;63430;53.186;6.598;2023-02-11T09:53:10;8.50;99.90
52979;DHT22;63430;53.186;6.598;2023-02-11T09:55:18;8.60;99.90
52979;DHT22;63430;53.186;6.598;2023-02-11T09:57:27;8.60;99.90
52979;DHT22;63430;53.186;6.598;2023-02-11T09:59:33;8.60;99.90
52979;DHT22;63430;53.186;6.598;2023-02-11T10:01:40;8.70;99.90
52979;DHT22;63430;53.186;6.598;2023-02-11T10:03:53;8.70;99.90
52979;DHT22;63430;53.186;6.598;2023-02-11T10:06:16;8.70;99.90
52979;DHT22;63430;53.186;6.598;2023-02-11T10:08:29;8.80;99.90
52979;DHT22;63430;53.186;6.598;2023-02-11T10:10:46;8.80;99.90
52979;DHT22;63430;53.186;6.598;2023-02-11T10:13:03;8.90;99.90
52979;DHT22;63430;53.186;6.598;2023-02-11T10:15:20;8.90;99.90
52979;DHT22;63430;53.186;6.598;2023-02-11T10:17:33;9.00;99.90
52979;DHT22;63430;53.186;6.598;2023-02-11T10:19:49;9.00;99.90
52979;DHT22;63430;53.186;6.598;2023-02-11T10:22:03;9.10;99.90
52979;DHT22;63430;53.186;6.598;2023-02-11T10:24:12;9.10;99.90
52979;DHT22;63430;53.186;6.598;2023-02-11T10:26:16;9.10;99.90
52979;DHT22;63430;53.186;6.598;2023-02-11T10:28:23;9.20;99.90
52979;DHT22;63430;53.186;6.598;2023-02-11T10:30:31;9.20;99.90
52979;DHT22;63430;53.186;6.598;2023-02-11T10:32:41;9.20;99.90
52979;DHT22;63430;53.186;6.598;2023-02-11T10:34:45;9.30;99.90
52979;DHT22;63430;53.186;6.598;2023-02-11T10:36:48;9.30;99.90
52979;DHT22;63430;53.186;6.598;2023-02-11T10:38:50;9.30;99.90
52979;DHT22;63430;53.186;6.598;2023-02-11T10:40:53;9.30;99.90
52979;DHT22;63430;53.186;6.598;2023-02-11T10:42:58;9.40;99.90
52979;DHT22;63430;53.186;6.598;2023-02-11T10:45:06;9.40;99.90
52979;DHT22;63430;53.186;6.598;2023-02-11T10:47:11;9.40;99.90
52979;DHT22;63430;53.186;6.598;2023-02-11T10:49:34;9.40;99.90
52979;DHT22;63430;53.186;6.598;2023-02-11T10:51:36;9.40;99.90
52979;DHT22;63430;53.186;6.598;2023-02-11T10:53:39;9.50;99.90
52979;DHT22;63430;53.186;6.598;2023-02-11T10:55:49;9.50;99.90
52979;DHT22;63430;53.186;6.598;2023-02-11T10:57:57;9.50;99.90
52979;DHT22;63430;53.186;6.598;2023-02-11T11:00:07;9.50;99.90
52979;DHT22;63430;53.186;6.598;2023-02-11T11:02:25;9.60;99.90
52979;DHT22;63430;53.186;6.598;2023-02-11T11:04:41;9.60;99.90
52979;DHT22;63430;53.186;6.598;2023-02-11T11:06:44;9.60;99.90
52979;DHT22;63430;53.186;6.598;2023-02-11T11:08:49;9.60;99.90
52979;DHT22;63430;53.186;6.598;2023-02-11T11:11:02;9.60;99.90
52979;DHT22;63430;53.186;6.598;2023-02-11T11:15:34;9.60;99.90
52979;DHT22;63430;53.186;6.598;2023-02-11T11:17:36;9.60;99.90
52979;DHT22;63430;53.186;6.598;2023-02-11T11:19:39;9.60;99.90
52979;DHT22;63430;53.186;6.598;2023-02-11T11:21:43;9.70;99.90
52979;DHT22;63430;53.186;6.598;2023-02-11T11:23:53;9.90;99.90
52979;DHT22;63430;53.186;6.598;2023-02-11T11:26:03;9.70;99.90
52979;DHT22;63430;53.186;6.598;2023-02-11T11:28:19;9.70;99.90
52979;DHT22;63430;53.186;6.598;2023-02-11T11:30:25;9.70;99.90
52979;DHT22;63430;53.186;6.598;2023-02-11T11:32:32;9.70;99.90
52979;DHT22;63430;53.186;6.598;2023-02-11T11:34:36;9.70;99.90
52979;DHT22;63430;53.186;6.598;2023-02-11T11:36:42;9.70;99.90
52979;DHT22;63430;53.186;6.598;2023-02-11T11:38:48;9.70;99.90
52979;DHT22;63430;53.186;6.598;2023-02-11T11:41:14;9.70;99.90
52979;DHT22;63430;53.186;6.598;2023-02-11T11:43:17;9.70;99.90
52979;DHT22;63430;53.186;6.598;2023-02-11T11:45:25;9.90;99.90
52979;DHT22;63430;53.186;6.598;2023-02-11T11:47:32;9.80;99.90
52979;DHT22;63430;53.186;6.598;2023-02-11T11:49:38;9.90;99.90
52979;DHT22;63430;53.186;6.598;2023-02-11T11:51:46;9.90;99.90
52979;DHT22;63430;53.186;6.598;2023-02-11T11:53:56;9.90;99.90
52979;DHT22;63430;53.186;6.598;2023-02-11T11:56:02;9.90;99.90
52979;DHT22;63430;53.186;6.598;2023-02-11T11:58:10;10.00;99.90
52979;DHT22;63430;53.186;6.598;2023-02-11T12:00:16;10.00;99.90
52979;DHT22;63430;53.186;6.598;2023-02-11T12:05:00;10.10;99.90
52979;DHT22;63430;53.186;6.598;2023-02-11T12:07:20;10.10;99.90
52979;DHT22;63430;53.186;6.598;2023-02-11T12:09:33;10.10;99.90
52979;DHT22;63430;53.186;6.598;2023-02-11T12:12:04;10.10;99.90
52979;DHT22;63430;53.186;6.598;2023-02-11T12:14:16;10.10;99.90
52979;DHT22;63430;53.186;6.598;2023-02-11T12:16:28;10.10;99.90
52979;DHT22;63430;53.186;6.598;2023-02-11T12:21:30;10.00;99.90
52979;DHT22;63430;53.186;6.598;2023-02-11T12:23:44;10.00;99.90
52979;DHT22;63430;53.186;6.598;2023-02-11T12:26:05;10.10;99.90
52979;DHT22;63430;53.186;6.598;2023-02-11T12:28:30;10.10;99.90
52979;DHT22;63430;53.186;6.598;2023-02-11T12:33:15;10.20;99.90
52979;DHT22;63430;53.186;6.598;2023-02-11T12:35:35;10.20;99.90
52979;DHT22;63430;53.186;6.598;2023-02-11T12:37:52;10.20;99.90
52979;DHT22;63430;53.186;6.598;2023-02-11T12:40:11;10.20;99.90
52979;DHT22;63430;53.186;6.598;2023-02-11T12:42:32;10.20;99.90
52979;DHT22;63430;53.186;6.598;2023-02-11T12:45:14;10.20;99.90
52979;DHT22;63430;53.186;6.598;2023-02-11T12:47:24;10.20;99.90
52979;DHT22;63430;53.186;6.598;2023-02-11T12:49:54;10.60;99.90
52979;DHT22;63430;53.186;6.598;2023-02-11T12:52:16;10.20;99.90
52979;DHT22;63430;53.186;6.598;2023-02-11T12:54:28;10.20;99.90
52979;DHT22;63430;53.186;6.598;2023-02-11T12:56:36;10.20;99.90
52979;DHT22;63430;53.186;6.598;2023-02-11T12:58:40;10.20;99.90
52979;DHT22;63430;53.186;6.598;2023-02-11T13:00:49;10.10;99.90
52979;DHT22;63430;53.186;6.598;2023-02-11T13:02:58;10.10;99.90
52979;DHT22;63430;53.186;6.598;2023-02-11T13:05:07;10.10;99.90
52979;DHT22;63430;53.186;6.598;2023-02-11T13:07:20;10.10;99.90
52979;DHT22;63430;53.186;6.598;2023-02-11T13:09:29;10.10;99.90
52979;DHT22;63430;53.186;6.598;2023-02-11T13:11:37;10.10;99.90
52979;DHT22;63430;53.186;6.598;2023-02-11T13:13:47;10.60;99.90
52979;DHT22;63430;53.186;6.598;2023-02-11T13:15:55;10.00;99.90
52979;DHT22;63430;53.186;6.598;2023-02-11T13:18:03;10.00;99.90
52979;DHT22;63430;53.186;6.598;2023-02-11T13:20:17;10.00;99.90
52979;DHT22;63430;53.186;6.598;2023-02-11T13:22:25;9.90;99.90
52979;DHT22;63430;53.186;6.598;2023-02-11T13:24:39;9.90;99.90
52979;DHT22;63430;53.186;6.598;2023-02-11T13:26:48;9.90;99.90
52979;DHT22;63430;53.186;6.598;2023-02-11T13:28:59;9.80;99.90
52979;DHT22;63430;53.186;6.598;2023-02-11T13:31:07;9.80;99.90
52979;DHT22;63430;53.186;6.598;2023-02-11T13:33:19;9.80;99.90
52979;DHT22;63430;53.186;6.598;2023-02-11T13:35:27;9.80;99.90
52979;DHT22;63430;53.186;6.598;2023-02-11T13:37:35;9.70;99.90
52979;DHT22;63430;53.186;6.598;2023-02-11T13:39:40;9.80;99.90
52979;DHT22;63430;53.186;6.598;2023-02-11T13:41:43;9.80;99.90
52979;DHT22;63430;53.186;6.598;2023-02-11T13:43:58;9.70;99.90
52979;DHT22;63430;53.186;6.598;2023-02-11T13:46:04;9.70;99.90
52979;DHT22;63430;53.186;6.598;2023-02-11T13:48:16;9.70;99.90